createdAt,value
2023-12-17T00:00:25.502Z,15.30
2023-12-17T00:03:16.716Z,13.60
2023-12-17T00:05:38.515Z,16.92
2023-12-17T00:08:05.182Z,10.80
2023-12-17T00:10:31.591Z,11.13
2023-12-17T00:12:57.989Z,13.90
2023-12-17T00:15:24.355Z,13.13
2023-12-17T00:17:50.857Z,16.92
2023-12-17T00:20:17.244Z,14.40
2023-12-17T00:22:44.463Z,17.20
2023-12-17T00:25:10.831Z,11.30
2023-12-17T00:27:37.395Z,14.57
2023-12-17T00:30:04.356Z,19.83
2023-12-17T00:32:30.810Z,14.65
2023-12-17T00:34:57.208Z,10.60
2023-12-17T00:37:23.581Z,13.32
2023-12-17T00:39:49.954Z,15.13
2023-12-17T00:42:16.321Z,12.43
2023-12-17T00:44:42.815Z,10.07
2023-12-17T00:47:09.283Z,15.10
2023-12-17T00:49:35.839Z,11.90
2023-12-17T00:52:02.323Z,16.58
2023-12-17T00:54:28.762Z,12.82
2023-12-17T00:56:55.239Z,11.48
2023-12-17T00:59:21.660Z,13.43
2023-12-17T01:01:48.134Z,9.95
2023-12-17T01:04:14.542Z,14.68
2023-12-17T01:06:41.035Z,13.18
2023-12-17T01:09:07.428Z,8.55
2023-12-17T01:11:33.835Z,12.97
2023-12-17T01:14:00.290Z,15.75
2023-12-17T01:16:26.654Z,12.25
2023-12-17T01:18:53.236Z,14.50
2023-12-17T01:21:19.669Z,14.48
2023-12-17T01:23:46.222Z,15.10
2023-12-17T01:26:20.987Z,10.82
2023-12-17T01:28:47.927Z,11.98
2023-12-17T01:31:14.807Z,14.07
2023-12-17T01:33:41.293Z,12.57
2023-12-17T01:36:08.233Z,10.33
2023-12-17T01:38:34.621Z,12.55
2023-12-17T01:41:01.050Z,13.32
2023-12-17T01:43:27.753Z,12.18
2023-12-17T01:45:55.434Z,10.88
2023-12-17T01:48:23.039Z,14.90
2023-12-17T01:50:50.152Z,11.07
2023-12-17T01:53:17.834Z,10.48
2023-12-17T01:55:46.464Z,12.50
2023-12-17T01:58:15.646Z,9.70
2023-12-17T02:00:43.584Z,10.33
2023-12-17T02:03:10.746Z,8.63
2023-12-17T02:05:37.684Z,12.30
2023-12-17T02:08:05.904Z,9.80
2023-12-17T02:10:32.510Z,11.00
2023-12-17T02:13:00.591Z,9.53
2023-12-17T02:15:26.956Z,9.30
2023-12-17T02:17:54.064Z,9.32
2023-12-17T02:20:20.701Z,8.98
2023-12-17T02:22:54.275Z,12.15
2023-12-17T02:25:20.720Z,12.27
2023-12-17T02:27:47.075Z,12.40
2023-12-17T02:30:13.922Z,8.98
2023-12-17T02:32:40.581Z,8.55
2023-12-17T02:35:07.372Z,9.63
2023-12-17T02:37:33.704Z,12.80
2023-12-17T02:40:00.120Z,8.15
2023-12-17T02:42:26.678Z,14.45
2023-12-17T02:44:53.017Z,9.90
2023-12-17T02:47:19.427Z,10.38
2023-12-17T02:49:47.021Z,8.63
2023-12-17T02:52:13.460Z,8.77
2023-12-17T02:54:41.065Z,10.57
2023-12-17T02:57:07.517Z,8.38
2023-12-17T02:59:33.840Z,12.60
2023-12-17T03:02:00.320Z,10.80
2023-12-17T03:04:26.761Z,7.25
2023-12-17T03:06:53.245Z,8.02
2023-12-17T03:09:19.631Z,6.78
2023-12-17T03:11:46.685Z,6.82
2023-12-17T03:14:13.038Z,7.17
2023-12-17T03:16:39.424Z,4.10
2023-12-17T03:19:06.082Z,4.95
2023-12-17T03:21:32.503Z,10.73
2023-12-17T03:23:58.975Z,6.57
2023-12-17T03:26:25.336Z,7.43
2023-12-17T03:28:51.811Z,8.70
2023-12-17T03:31:18.423Z,11.98
2023-12-17T03:33:46.483Z,8.60
2023-12-17T03:36:14.920Z,6.60
2023-12-17T03:38:43.013Z,9.40
2023-12-17T03:41:21.362Z,6.20
2023-12-17T03:43:50.325Z,7.95
2023-12-17T03:46:16.712Z,7.68
2023-12-17T03:48:43.270Z,5.45
2023-12-17T03:51:09.789Z,9.93
2023-12-17T03:53:37.166Z,8.93
2023-12-17T03:56:03.731Z,7.50
2023-12-17T03:58:30.131Z,6.00
2023-12-17T04:00:56.569Z,6.80
2023-12-17T04:03:23.055Z,7.60
2023-12-17T04:05:49.615Z,8.20
2023-12-17T04:08:16.100Z,9.52
2023-12-17T04:10:42.618Z,9.30
2023-12-17T04:13:09.003Z,8.00
2023-12-17T04:15:35.510Z,7.73
2023-12-17T04:18:02.050Z,6.43
2023-12-17T04:20:28.513Z,10.38
2023-12-17T04:22:54.822Z,9.55
2023-12-17T04:25:21.228Z,11.55
2023-12-17T04:27:47.598Z,12.27
2023-12-17T04:30:14.282Z,11.95
2023-12-17T04:32:40.864Z,16.25
2023-12-17T04:35:07.660Z,11.05
2023-12-17T04:37:34.168Z,15.25
2023-12-17T04:40:00.628Z,12.90
2023-12-17T04:42:27.060Z,10.75
2023-12-17T04:44:53.606Z,15.52
2023-12-17T04:47:20.077Z,14.70
2023-12-17T04:49:47.498Z,12.05
2023-12-17T04:52:13.872Z,7.83
2023-12-17T04:54:40.191Z,6.55
2023-12-17T04:57:06.796Z,10.70
2023-12-17T04:59:33.231Z,9.20
2023-12-17T05:01:59.658Z,9.25
2023-12-17T05:04:26.148Z,8.13
2023-12-17T05:06:52.688Z,8.80
2023-12-17T05:09:19.130Z,8.80
2023-12-17T05:11:45.632Z,13.82
2023-12-17T05:14:12.546Z,7.75
2023-12-17T05:16:39.891Z,7.90
2023-12-17T05:19:06.478Z,11.57
2023-12-17T05:21:33.003Z,8.85
2023-12-17T05:23:59.425Z,12.75
2023-12-17T05:26:25.816Z,8.20
2023-12-17T05:28:52.171Z,8.83
2023-12-17T05:31:18.548Z,9.88
2023-12-17T05:33:45.049Z,13.00
2023-12-17T05:36:11.438Z,18.25
2023-12-17T05:38:39.077Z,14.57
2023-12-17T05:41:06.129Z,9.47
2023-12-17T05:43:32.474Z,12.73
2023-12-17T05:45:59.419Z,15.65
2023-12-17T05:48:26.021Z,14.50
2023-12-17T05:50:52.590Z,14.18
2023-12-17T05:53:20.085Z,14.00
2023-12-17T05:55:49.301Z,18.35
2023-12-17T05:58:16.683Z,15.70
2023-12-17T06:00:43.091Z,16.70
2023-12-17T06:03:09.526Z,21.63
2023-12-17T06:05:35.925Z,16.77
2023-12-17T06:08:02.294Z,17.40
2023-12-17T06:10:28.769Z,17.48
2023-12-17T06:12:55.202Z,18.27
2023-12-17T06:15:21.575Z,16.35
2023-12-17T06:17:48.055Z,20.27
2023-12-17T06:20:14.569Z,16.30
2023-12-17T06:22:41.935Z,16.83
2023-12-17T06:25:08.434Z,22.58
2023-12-17T06:27:34.838Z,18.92
2023-12-17T06:30:01.279Z,21.40
2023-12-17T06:32:27.816Z,19.05
2023-12-17T06:34:54.324Z,25.38
2023-12-17T06:37:20.712Z,26.50
2023-12-17T06:39:47.218Z,26.92
2023-12-17T06:42:13.674Z,25.43
2023-12-17T06:44:40.146Z,16.80
2023-12-17T06:47:13.829Z,26.08
2023-12-17T06:49:45.276Z,22.15
2023-12-17T06:52:11.838Z,28.15
2023-12-17T06:54:38.236Z,20.23
2023-12-17T06:57:04.862Z,20.10
2023-12-17T06:59:31.240Z,23.73
2023-12-17T07:01:57.570Z,22.17
2023-12-17T07:04:24.858Z,23.08
2023-12-17T07:06:51.254Z,27.77
2023-12-17T07:09:17.728Z,24.13
2023-12-17T07:11:44.080Z,21.45
2023-12-17T07:14:10.449Z,21.58
2023-12-17T07:16:36.813Z,22.70
2023-12-17T07:19:04.737Z,27.03
2023-12-17T07:21:31.140Z,24.67
2023-12-17T07:23:57.675Z,23.15
2023-12-17T07:26:24.231Z,30.40
2023-12-17T07:28:50.698Z,28.17
2023-12-17T07:31:18.067Z,31.10
2023-12-17T07:33:44.984Z,24.65
2023-12-17T07:36:11.594Z,27.67
2023-12-17T07:38:38.005Z,32.05
2023-12-17T07:41:04.519Z,35.75
2023-12-17T07:43:30.863Z,34.30
2023-12-17T07:45:57.199Z,31.58
2023-12-17T07:48:23.730Z,30.92
2023-12-17T07:50:50.216Z,33.50
2023-12-17T07:53:16.608Z,29.60
2023-12-17T07:55:42.978Z,26.87
2023-12-17T07:58:09.371Z,30.02
2023-12-17T08:00:35.865Z,34.72
2023-12-17T08:03:02.353Z,30.70
2023-12-17T08:05:28.768Z,25.60
2023-12-17T08:07:55.141Z,26.17
2023-12-17T08:10:21.640Z,25.50
2023-12-17T08:12:48.075Z,27.83
2023-12-17T08:15:14.503Z,25.40
2023-12-17T08:17:41.337Z,25.13
2023-12-17T08:20:09.261Z,22.70
2023-12-17T08:22:35.696Z,19.83
2023-12-17T08:25:02.161Z,24.83
2023-12-17T08:27:28.653Z,20.92
2023-12-17T08:29:55.113Z,21.17
2023-12-17T08:32:21.512Z,22.17
2023-12-17T08:34:48.078Z,25.75
2023-12-17T08:37:14.540Z,17.88
2023-12-17T08:39:40.931Z,18.73
2023-12-17T08:42:07.359Z,21.48
2023-12-17T08:44:35.236Z,18.13
2023-12-17T08:47:01.622Z,19.83
2023-12-17T08:49:28.086Z,24.38
2023-12-17T08:51:54.600Z,21.25
2023-12-17T08:54:21.006Z,16.67
2023-12-17T08:56:47.534Z,16.93
2023-12-17T08:59:14.010Z,16.23
2023-12-17T09:01:40.380Z,21.15
2023-12-17T09:04:06.849Z,19.45
2023-12-17T09:06:42.629Z,24.52
2023-12-17T09:09:09.176Z,19.27
2023-12-17T09:11:35.679Z,20.55
2023-12-17T09:14:03.159Z,21.23
2023-12-17T09:16:29.725Z,20.35
2023-12-17T09:18:56.216Z,24.83
2023-12-17T09:21:23.175Z,16.07
2023-12-17T09:23:49.641Z,18.50
2023-12-17T09:26:16.492Z,17.77
2023-12-17T09:28:42.908Z,15.63
2023-12-17T09:31:10.656Z,15.85
2023-12-17T09:33:38.052Z,20.23
2023-12-17T09:36:06.137Z,19.42
2023-12-17T09:38:32.570Z,17.73
2023-12-17T09:40:59.004Z,22.58
2023-12-17T09:43:25.612Z,25.65
2023-12-17T09:45:53.167Z,24.97
2023-12-17T09:48:20.364Z,29.92
2023-12-17T09:50:46.852Z,27.42
2023-12-17T09:53:15.081Z,26.02
2023-12-17T09:55:41.505Z,24.25
2023-12-17T09:58:08.299Z,24.83
2023-12-17T10:00:34.834Z,25.77
2023-12-17T10:03:05.476Z,22.75
2023-12-17T10:05:33.219Z,24.73
2023-12-17T10:08:02.862Z,22.77
2023-12-17T10:10:29.278Z,25.83
2023-12-17T10:12:55.876Z,31.73
2023-12-17T10:15:22.382Z,25.88
2023-12-17T10:17:49.154Z,32.85
2023-12-17T10:20:19.767Z,24.67
2023-12-17T10:23:02.376Z,28.07
2023-12-17T10:25:30.137Z,26.40
2023-12-17T10:27:58.798Z,29.95
2023-12-17T10:30:30.921Z,21.77
2023-12-17T10:32:59.516Z,26.67
2023-12-17T10:35:26.828Z,40.53
2023-12-17T10:37:58.444Z,40.22
2023-12-17T10:40:25.943Z,40.33
2023-12-17T10:42:54.016Z,42.17
2023-12-17T10:45:21.860Z,40.88
2023-12-17T10:47:56.417Z,43.20
2023-12-17T10:50:24.336Z,40.13
2023-12-17T10:52:51.507Z,41.78
2023-12-17T10:55:18.967Z,41.35
2023-12-17T10:57:59.391Z,39.63
2023-12-17T11:00:29.015Z,38.83
2023-12-17T11:02:59.285Z,38.17
2023-12-17T11:05:25.834Z,44.42
2023-12-17T11:07:53.074Z,39.85
2023-12-17T11:10:19.777Z,32.30
2023-12-17T11:12:47.232Z,37.00
2023-12-17T11:15:14.515Z,34.97
2023-12-17T11:17:45.306Z,29.80
2023-12-17T11:20:13.216Z,33.45
2023-12-17T11:22:39.916Z,31.73
2023-12-17T11:25:12.139Z,32.03
2023-12-17T11:27:40.087Z,38.83
2023-12-17T11:30:30.582Z,32.35
2023-12-17T11:33:00.972Z,38.50
2023-12-17T11:35:28.679Z,34.25
2023-12-17T11:37:55.462Z,30.87
2023-12-17T11:40:22.426Z,35.17
2023-12-17T11:43:02.650Z,29.08
2023-12-17T11:45:43.716Z,36.42
2023-12-17T11:48:13.828Z,30.75
2023-12-17T11:50:47.692Z,36.17
2023-12-17T11:53:15.899Z,34.15
2023-12-17T11:55:47.280Z,29.17
2023-12-17T11:58:15.508Z,25.92
2023-12-17T12:00:41.896Z,33.42
2023-12-17T12:03:08.394Z,27.60
2023-12-17T12:05:34.990Z,26.45
2023-12-17T12:08:01.453Z,30.90
2023-12-17T12:10:28.920Z,29.10
2023-12-17T12:13:05.268Z,30.92
2023-12-17T12:15:31.792Z,27.83
2023-12-17T12:18:06.060Z,28.67
2023-12-17T12:20:36.764Z,29.33
2023-12-17T12:23:10.111Z,31.40
2023-12-17T12:25:38.201Z,25.98
2023-12-17T12:28:04.670Z,28.48
2023-12-17T12:30:31.490Z,30.60
2023-12-17T12:33:17.601Z,25.45
2023-12-17T12:35:45.665Z,24.60
2023-12-17T12:38:25.984Z,23.38
2023-12-17T12:40:56.073Z,30.40
2023-12-17T12:43:24.317Z,25.05
2023-12-17T12:45:54.521Z,32.33
2023-12-17T12:48:24.063Z,25.83
2023-12-17T12:50:52.401Z,30.90
2023-12-17T12:53:25.502Z,17.00
2023-12-17T12:55:53.445Z,24.38
2023-12-17T12:58:19.868Z,21.58
2023-12-17T13:00:48.423Z,28.40
2023-12-17T13:03:16.061Z,21.02
2023-12-17T13:05:42.923Z,19.50
2023-12-17T13:08:09.404Z,17.67
2023-12-17T13:10:35.962Z,18.92
2023-12-17T13:13:02.743Z,22.25
2023-12-17T13:15:31.355Z,17.00
2023-12-17T13:17:58.710Z,22.88
2023-12-17T13:20:25.438Z,18.63
2023-12-17T13:22:51.995Z,18.00
2023-12-17T13:25:18.531Z,15.80
2023-12-17T13:27:46.572Z,17.80
2023-12-17T13:30:13.583Z,15.30
2023-12-17T13:32:40.219Z,16.33
2023-12-17T13:35:07.902Z,18.65
2023-12-17T13:37:34.288Z,20.48
2023-12-17T13:40:00.654Z,17.08
2023-12-17T13:42:27.096Z,21.08
2023-12-17T13:44:53.450Z,16.52
2023-12-17T13:47:19.841Z,16.90
2023-12-17T13:49:46.535Z,16.90
2023-12-17T13:52:13.070Z,17.05
2023-12-17T13:54:40.113Z,15.52
2023-12-17T13:57:07.277Z,13.25
2023-12-17T13:59:33.945Z,19.15
2023-12-17T14:02:00.369Z,17.60
2023-12-17T14:04:28.426Z,18.05
2023-12-17T14:06:55.210Z,14.43
2023-12-17T14:09:21.618Z,18.58
2023-12-17T14:11:48.100Z,20.65
2023-12-17T14:14:14.480Z,20.80
2023-12-17T14:16:40.830Z,9.82
2023-12-17T14:19:07.350Z,13.63
2023-12-17T14:21:34.262Z,13.32
2023-12-17T14:24:00.614Z,15.05
2023-12-17T14:26:28.276Z,12.85
2023-12-17T14:28:54.721Z,17.35
2023-12-17T14:31:28.187Z,14.98
2023-12-17T14:33:54.637Z,15.00
2023-12-17T14:36:21.957Z,14.43
2023-12-17T14:38:48.368Z,17.17
2023-12-17T14:41:14.706Z,15.82
2023-12-17T14:43:41.113Z,16.63
2023-12-17T14:46:07.564Z,15.23
2023-12-17T14:48:34.346Z,21.85
2023-12-17T14:51:00.902Z,19.73
2023-12-17T14:53:27.345Z,16.85
2023-12-17T14:55:53.702Z,16.52
2023-12-17T14:58:20.183Z,15.25
2023-12-17T15:00:47.443Z,15.00
2023-12-17T15:03:14.545Z,16.20
2023-12-17T15:05:41.713Z,20.52
2023-12-17T15:08:08.174Z,18.92
2023-12-17T15:10:34.892Z,19.33
2023-12-17T15:13:01.335Z,13.52
2023-12-17T15:15:27.761Z,16.75
2023-12-17T15:17:55.527Z,14.98
2023-12-17T15:20:22.098Z,20.33
2023-12-17T15:22:48.433Z,18.75
2023-12-17T15:25:14.918Z,18.80
2023-12-17T15:27:42.347Z,20.02
2023-12-17T15:30:09.433Z,16.73
2023-12-17T15:32:35.852Z,10.43
2023-12-17T15:35:02.237Z,17.67
2023-12-17T15:37:28.656Z,17.45
2023-12-17T15:39:55.024Z,18.95
2023-12-17T15:42:22.424Z,20.63
2023-12-17T15:44:49.006Z,18.73
2023-12-17T15:47:15.615Z,17.17
2023-12-17T15:49:42.030Z,12.32
2023-12-17T15:52:08.405Z,18.60
2023-12-17T15:54:34.819Z,17.67
2023-12-17T15:57:01.216Z,15.73
2023-12-17T15:59:27.911Z,17.13
2023-12-17T16:01:54.810Z,18.27
2023-12-17T16:04:21.234Z,20.77
2023-12-17T16:06:47.741Z,14.20
2023-12-17T16:09:14.311Z,17.08
2023-12-17T16:11:40.776Z,16.60
2023-12-17T16:14:07.250Z,18.08
2023-12-17T16:16:33.589Z,17.95
2023-12-17T16:19:00.644Z,19.42
2023-12-17T16:21:27.193Z,21.38
2023-12-17T16:23:54.621Z,17.42
2023-12-17T16:26:21.014Z,18.33
2023-12-17T16:28:47.766Z,16.63
2023-12-17T16:31:14.324Z,20.02
2023-12-17T16:33:42.028Z,16.27
2023-12-17T16:36:08.573Z,18.83
2023-12-17T16:38:35.005Z,19.25
2023-12-17T16:41:01.373Z,19.02
2023-12-17T16:43:27.675Z,20.35
2023-12-17T16:45:53.973Z,17.83
2023-12-17T16:48:20.509Z,19.00
2023-12-17T16:50:47.989Z,20.02
2023-12-17T16:53:14.421Z,22.50
2023-12-17T16:55:40.805Z,19.55
2023-12-17T16:58:07.564Z,18.98
2023-12-17T17:00:35.879Z,15.65
2023-12-17T17:03:02.638Z,15.07
2023-12-17T17:05:30.050Z,18.95
2023-12-17T17:07:56.449Z,19.92
2023-12-17T17:10:23.017Z,18.60
2023-12-17T17:12:49.866Z,16.90
2023-12-17T17:15:16.356Z,23.95
2023-12-17T17:17:42.855Z,15.82
2023-12-17T17:20:10.733Z,18.75
2023-12-17T17:22:38.193Z,18.33
2023-12-17T17:25:06.240Z,19.17
2023-12-17T17:27:32.587Z,14.32
2023-12-17T17:29:59.039Z,15.77
2023-12-17T17:32:25.751Z,15.65
2023-12-17T17:34:53.348Z,15.60
2023-12-17T17:37:19.755Z,19.08
2023-12-17T17:39:46.244Z,16.05
2023-12-17T17:42:12.686Z,18.55
2023-12-17T17:44:39.465Z,15.23
2023-12-17T17:47:06.109Z,14.25
2023-12-17T17:49:32.614Z,16.00
2023-12-17T17:51:59.014Z,18.50
2023-12-17T17:54:25.439Z,23.42
2023-12-17T17:56:51.957Z,16.20
2023-12-17T17:59:18.364Z,18.30
2023-12-17T18:01:44.848Z,18.85
2023-12-17T18:04:12.829Z,15.95
2023-12-17T18:06:39.262Z,16.23
2023-12-17T18:09:05.767Z,14.40
2023-12-17T18:11:32.236Z,17.33
2023-12-17T18:13:58.717Z,16.85
2023-12-17T18:16:25.129Z,22.15
2023-12-17T18:18:52.105Z,22.75
2023-12-17T18:21:19.874Z,23.60
2023-12-17T18:23:47.813Z,18.00
2023-12-17T18:26:24.048Z,20.65
2023-12-17T18:28:50.948Z,14.10
2023-12-17T18:31:17.490Z,19.20
2023-12-17T18:33:44.188Z,18.08
2023-12-17T18:36:10.896Z,19.17
2023-12-17T18:38:37.336Z,16.45
2023-12-17T18:41:03.946Z,21.85
2023-12-17T18:43:30.303Z,16.73
2023-12-17T18:45:56.675Z,16.25
2023-12-17T18:48:23.149Z,19.40
2023-12-17T18:50:49.603Z,23.95
2023-12-17T18:53:16.080Z,19.42
2023-12-17T18:55:42.442Z,17.52
2023-12-17T18:58:08.819Z,16.95
2023-12-17T19:00:35.258Z,20.08
2023-12-17T19:03:01.837Z,23.15
2023-12-17T19:05:28.193Z,19.27
2023-12-17T19:07:54.552Z,29.35
2023-12-17T19:10:20.918Z,23.38
2023-12-17T19:12:47.362Z,23.00
2023-12-17T19:15:13.788Z,25.08
2023-12-17T19:17:40.281Z,20.00
2023-12-17T19:20:07.227Z,20.45
2023-12-17T19:22:33.772Z,24.42
2023-12-17T19:25:00.142Z,25.42
2023-12-17T19:27:26.786Z,23.60
2023-12-17T19:29:53.289Z,20.88
2023-12-17T19:32:19.668Z,29.33
2023-12-17T19:34:46.042Z,25.13
2023-12-17T19:37:12.572Z,19.30
2023-12-17T19:39:39.056Z,18.70
2023-12-17T19:42:09.570Z,28.92
2023-12-17T19:44:35.938Z,25.15
2023-12-17T19:47:02.456Z,23.48
2023-12-17T19:49:29.268Z,22.10
2023-12-17T19:51:55.727Z,22.83
2023-12-17T19:54:22.110Z,23.92
2023-12-17T19:56:48.805Z,25.85
2023-12-17T19:59:15.141Z,20.48
2023-12-17T20:01:41.514Z,18.90
2023-12-17T20:04:07.933Z,25.20
2023-12-17T20:06:34.441Z,21.30
2023-12-17T20:09:00.823Z,16.50
2023-12-17T20:11:27.361Z,21.45
2023-12-17T20:13:54.155Z,20.35
2023-12-17T20:16:20.597Z,23.05
2023-12-17T20:18:47.103Z,23.65
2023-12-17T20:21:13.689Z,18.73
2023-12-17T20:23:40.210Z,23.15
2023-12-17T20:26:06.588Z,21.92
2023-12-17T20:28:32.941Z,20.60
2023-12-17T20:30:59.437Z,24.23
2023-12-17T20:33:26.153Z,20.75
2023-12-17T20:35:52.493Z,26.70
2023-12-17T20:38:18.931Z,25.98
2023-12-17T20:40:45.953Z,20.45
2023-12-17T20:43:12.418Z,23.23
2023-12-17T20:45:40.474Z,17.10
2023-12-17T20:48:07.894Z,23.80
2023-12-17T20:50:36.043Z,21.67
2023-12-17T20:53:02.399Z,22.40
2023-12-17T20:55:28.895Z,20.52
2023-12-17T20:57:55.292Z,21.83
2023-12-17T21:00:21.783Z,21.15
2023-12-17T21:02:48.219Z,21.38
2023-12-17T21:05:15.371Z,22.48
2023-12-17T21:07:41.969Z,26.55
2023-12-17T21:10:08.717Z,20.50
2023-12-17T21:12:35.279Z,22.45
2023-12-17T21:15:01.782Z,26.52
2023-12-17T21:17:28.139Z,22.15
2023-12-17T21:19:54.487Z,21.27
2023-12-17T21:22:20.905Z,21.38
2023-12-17T21:24:47.314Z,26.70
2023-12-17T21:27:20.587Z,25.83
2023-12-17T21:29:47.295Z,27.90
2023-12-17T21:32:13.682Z,21.70
2023-12-17T21:34:40.211Z,23.30
2023-12-17T21:37:07.657Z,24.83
2023-12-17T21:39:34.150Z,20.80
2023-12-17T21:42:00.637Z,23.80
2023-12-17T21:44:27.405Z,26.30
2023-12-17T21:46:53.830Z,22.58
2023-12-17T21:49:20.231Z,22.85
2023-12-17T21:51:46.606Z,20.23
2023-12-17T21:54:13.004Z,32.85
2023-12-17T21:56:39.392Z,23.42
2023-12-17T21:59:05.975Z,21.25
2023-12-17T22:01:32.514Z,22.77
2023-12-17T22:03:59.095Z,22.20
2023-12-17T22:06:25.578Z,22.10
2023-12-17T22:08:57.778Z,25.92
2023-12-17T22:11:27.334Z,25.52
2023-12-17T22:13:53.827Z,21.33
2023-12-17T22:16:20.151Z,24.23
2023-12-17T22:18:46.646Z,25.25
2023-12-17T22:21:22.573Z,23.20
2023-12-17T22:23:49.004Z,22.10
2023-12-17T22:26:15.425Z,20.75
2023-12-17T22:28:41.825Z,26.95
2023-12-17T22:31:09.412Z,21.38
2023-12-17T22:33:36.002Z,23.65
2023-12-17T22:36:02.506Z,25.50
2023-12-17T22:38:29.000Z,26.08
2023-12-17T22:40:55.493Z,27.58
2023-12-17T22:43:21.890Z,25.25
2023-12-17T22:45:48.365Z,23.50
2023-12-17T22:48:14.832Z,21.42
2023-12-17T22:50:41.308Z,24.85
2023-12-17T22:53:07.752Z,24.45
2023-12-17T22:55:34.098Z,31.23
2023-12-17T22:58:01.496Z,23.08
2023-12-17T23:00:27.956Z,25.88
2023-12-17T23:02:54.439Z,26.77
2023-12-17T23:05:21.069Z,22.50
2023-12-17T23:07:47.596Z,26.67
2023-12-17T23:10:16.422Z,21.35
2023-12-17T23:12:43.984Z,23.85
2023-12-17T23:15:11.437Z,26.73
2023-12-17T23:17:38.188Z,21.88
2023-12-17T23:20:05.262Z,26.85
2023-12-17T23:22:31.631Z,25.08
2023-12-17T23:24:57.978Z,27.15
2023-12-17T23:27:24.400Z,23.17
2023-12-17T23:29:50.917Z,25.08
2023-12-17T23:32:24.774Z,25.70
2023-12-17T23:34:56.543Z,28.20
2023-12-17T23:37:22.993Z,23.23
2023-12-17T23:39:49.384Z,27.55
2023-12-17T23:42:15.869Z,23.60
2023-12-17T23:44:42.293Z,25.85
2023-12-17T23:47:08.672Z,30.08
2023-12-17T23:49:35.087Z,28.60
2023-12-17T23:52:01.460Z,26.15
2023-12-17T23:54:27.872Z,32.70
2023-12-17T23:56:54.281Z,23.15
2023-12-17T23:59:20.620Z,23.90
